Coulee Dam, WA (99116)

2:23 AM PDT on August 02, 2014 (GMT -0700)
RAWS SPRING CANYON WA US (MSPCW1) Elev 1339 ft | 47.93 °N, 118.93 °W | Change Station

Current weather conditions updated 46 minutes ago

Clear
Clear
73 °F
Feels Like 77 °F
N
0
Wind Variable Wind from North
Gusts 4.0 mph

Today is forecast to be Warmer than yesterday. Isolated thunderstorms.

Today
High -- | Low -- °F
--% Chance of Precip.
Yesterday
High -- | Low -- °F
Precip. -- in
5:33 AM 8:29 PM
Waxing Crescent, 34% visible
Pressure 29.91 in
Visibility 10.0 miles
Clouds Clear
Heat Index 77 °F
Dew Point 43 °F
Humidity 34%
Rainfall 0.00 in
Snow Depth Not available.
UV 0 out of 12
Pollen 6.50 out of 12
Air Quality Not available.
Flu Activity Not available.
METAR KOMK 020853Z AUTO 00000KT 10SM CLR 21/07 A2994 RMK AO2 SLP129 T02110067 53010

More Conditions Fewer Conditions

Pressure 29.91 in
Visibility 10.0 miles
Clouds Clear
Heat Index 77 °F
Dew Point 43 °F
Humidity 34%
Rainfall 0.00 in
Snow Depth Not available.
UV 0 out of 12
Pollen 6.50 out of 12
Air Quality Not available.
Flu Activity Not available.
METAR KOMK 020853Z AUTO 00000KT 10SM CLR 21/07 A2994 RMK AO2 SLP129 T02110067 53010

More Conditions Fewer Conditions

10-Day Weather Forecast

Almanac

Astronomy

Aug. 02, 2014 Rise Set
Actual Time 5:33 AM PDT 8:29 PM PDT
Civil Twilight 4:57 AM PDT 9:05 PM PDT
Nautical Twilight 4:10 AM PDT 9:52 PM PDT
Astronomical Twilight 3:13 AM PDT 10:48 PM PDT
Moon 12:32 PM PDT 11:17 PM PDT
Length of Visible Light 16h 08m
Length of Day
14h 56m
Tomorrow will be 2m 47s shorter.
Waxing Crescent, 34% of the Moon is Illuminated
Today
Waxing Crescent
Aug 3
First Quarter
Aug 10
Full
Aug 17
Last Quarter
Aug 25
New

Today's Extremes

State Highs State Lows

Community

WunderPhotos

Upload Photos

1,739,850 photos uploaded!

Nearby

Snow Depth

Station Depth Elevation
Moses Mountain 1 in 5300 ft
Sentinel Butte 0 in 4920 ft
Grouse Camp 0 in 5380 ft
Quartz Peak 1 in 4700 ft
Rainy Pass 0 in 4780 ft

Earthquake Activity

City Distance Mag. Time & Date
No recent earthquake activity has been reported nearby.
Minimum magnitude displayed is 2.5.

Coastal Water Temperatures

Place Temperature
No Stations Reporting

Nearby Weather Stations

Station Location Temp. Heat Index Dew Point Humidity Wind Precip. Elev Updated Type
RAWS SPRING CANYON WA, Coulee Dam, WA 73 °F 77 °F 43 °F 34% North  at  0 mph 0.00 in / hr 1339 ft 1:37 AM PDT MADIS
3 miles ESE of Grand Coulee Dam, in Linc, Grand Coulee, WA 71.6 °F 77 °F 45 °F 39% South  at  0.0 mph 0.00 in / hr 1575 ft 2:15 AM PDT Normal
RAWS NESPELEM WA, Elmer City, WA 69 °F - 39 °F 34% WNW  at  2 mph 0.00 in / hr 1899 ft 1:57 AM PDT MADIS
MesoWest Coulee Dam West , Electric City, WA 73 °F 76 °F 39 °F 29% North  at  0 mph 0.00 in / hr 2562 ft 12:15 AM PDT MADIS

Show More Stations Show Fewer Stations